東京理科大学Ⅰ部体育局航空部

このエントリーをはてなブックマークに追加

ようこそ、理科大航空部HPへ! ここでは、航空部に関する情報や、活動などをお知らせしています。


METAR・TAF

TOKYO INTERNATIONAL
Metar
RJTT 250500Z 03004KT 360V060 9999 FEW030 SCT070 BKN150 09/M02 Q1026 NOSIG RMK 1CU030 4AC070 7AC150 A3032

05:00 UTC

Wind: 30° 4kt

Visibility: 9999 m

Sky: FEW 3000 ft

Temp: 9 deg C / 48.2 deg F

Dewpoint: -2 deg C / 28.4 deg F

Pressure: 1026 hPa

TAF
TAF RJTT 242306Z 2500/2606 03010KT 9999 FEW030 BKN060 BECMG 2504/2506 08012KT BECMG 2512/2515 01012KT
NARITA INTERNATIONAL
Metar
RJAA 250500Z 08007KT 020V120 9999 FEW030 BKN060 BKN080 09/M01 Q1026 NOSIG RMK 1CU030 5SC060 7AC080 A3032

05:00 UTC

Wind: 80° 7kt

Visibility: 9999 m

Sky: FEW 3000 ft

Temp: 9 deg C / 48.2 deg F

Dewpoint: -1 deg C / 30.2 deg F

Pressure: 1026 hPa

TAF
TAF RJAA 242306Z 2500/2606 01010KT 9999 FEW030 BECMG 2505/2507 10005KT BECMG 2510/2512 36006KT